Alyeska Resort
Max's Hourly Weather Roundup
ALYESKA_MAX 7/24/2014
Click Here for Graph

        DATE  TIME   Air  Wind  Wind  Wind  BATT   Rel
                    Temp   Spd   Dir  Gust  Volt  Hum%
                      F   MPH   AVG   MPH   AVG   AVG

   7/24/2014 08:00    46     3    84     7 13.44    92
   7/24/2014 07:00    44     3    77     7 12.81    94
   7/24/2014 06:00    44     3    88     7 12.79    96
   7/24/2014 05:00    44     2    98     6 12.80    97
   7/24/2014 04:00    44     2    96     8 12.83    98
   7/24/2014 03:00    44     4   110    12 12.86    99
   7/24/2014 02:00    44     4   100    10 12.88   100
   7/24/2014 01:00    44     3   127    10 12.91   100
   7/23/2014 24:00    44     3    99    15 12.95   100
   7/23/2014 23:00    45     2   177     6 13.04   100
   7/23/2014 22:00    45     3   137    10 13.22   100
   7/23/2014 21:00    46     3   143    11 13.93   100
   7/23/2014 20:00    46     2   160     8 13.92   100
   7/23/2014 19:00    47     4   149    14 13.92   100
   7/23/2014 18:00    47     4   106    10 13.91   100
   7/23/2014 17:00    46     3   191    11 13.90   100
   7/23/2014 16:00    47     3   182    10 13.86   100
   7/23/2014 15:00    48     3   137    13 13.78    99
   7/23/2014 14:00    46     4   149    14 13.73   100
   7/23/2014 13:00    46     3   146    11 13.65    99
   7/23/2014 12:00    45     2   247     5 13.71   100
   7/23/2014 11:00    45     2   218     7 13.77   100
   7/23/2014 10:00    44     2   172     8 13.44   100
   7/23/2014 09:00    44     3   183    13 13.05   100


Click Here for Graph